Time;durP1;ratioP1;P1;durP2;ratioP2;P2;SDS_P1;SDS_P2;PMS_P1;PMS_P2;Temp;Humidity;BMP_temperature;BMP_pressure;BME280_temperature;BME280_humidity;BME280_pressure;Samples;Min_cycle;Max_cycle;Signal;HPM_P1;HPM_P2
2022/06/23 00:03:44;;;;;;;2.00;1.90;;;12.30;1.00;;;;;;8374938;28;20212;-69
2022/06/23 00:07:52;;;;;;;3.03;2.17;;;12.30;42.80;;;;;;8365661;28;20209;-69
2022/06/23 00:11:53;;;;;;;2.13;1.90;;;12.20;99.90;;;;;;8376080;28;20216;-70
2022/06/23 00:15:55;;;;;;;1.67;1.40;;;12.20;99.90;;;;;;8372980;28;20185;-69
2022/06/23 00:20:00;;;;;;;2.43;2.23;;;12.10;99.90;;;;;;8368591;28;20252;-68
2022/06/23 00:24:06;;;;;;;2.03;1.87;;;12.00;99.90;;;;;;8371748;28;20207;-69
2022/06/23 00:28:24;;;;;;;2.87;1.90;;;12.00;99.90;;;;;;8367006;28;20205;-69
2022/06/23 00:32:27;;;;;;;2.20;1.93;;;12.00;99.90;;;;;;8370457;28;20192;-70
2022/06/23 00:36:28;;;;;;;1.97;1.77;;;11.90;99.90;;;;;;8368794;28;20182;-69
2022/06/23 00:40:29;;;;;;;2.33;1.57;;;11.80;1.00;;;;;;8375586;28;20235;-69
2022/06/23 00:44:37;;;;;;;2.07;1.87;;;11.80;1.00;;;;;;8365369;28;20189;-70
2022/06/23 00:48:45;;;;;;;3.20;2.20;;;11.70;1.00;;;;;;8363258;28;20235;-69
2022/06/23 00:52:57;;;;;;;3.80;2.10;;;11.60;1.00;;;;;;8372117;28;20182;-69
2022/06/23 00:57:09;;;;;;;2.33;2.07;;;11.50;22.30;;;;;;8371162;28;20196;-69
2022/06/23 01:01:24;;;;;;;3.50;2.17;;;11.40;90.70;;;;;;8365698;28;20244;-69
2022/06/23 01:05:45;;;;;;;2.47;1.90;;;11.20;99.90;;;;;;8370833;28;20193;-69
2022/06/23 01:09:55;;;;;;;2.47;1.77;;;11.10;99.90;;;;;;8361718;28;20279;-69
2022/06/23 01:14:34;;;;;;;2.10;1.83;;;10.90;99.90;;;;;;8368993;28;20177;-70
2022/06/23 01:18:40;;;;;;;2.23;2.03;;;10.80;1.00;;;;;;8368569;28;20185;-69
2022/06/23 01:22:50;;;;;;;2.67;1.90;;;10.70;1.00;;;;;;8365937;28;20187;-70
2022/06/23 01:27:13;;;;;;;3.33;2.00;;;10.60;1.00;;;;;;8375680;28;20208;-70
2022/06/23 01:31:28;;;;;;;2.47;1.97;;;10.50;99.90;;;;;;8373522;28;20204;-69
2022/06/23 01:35:43;;;;;;;2.77;2.40;;;10.50;99.90;;;;;;8371409;28;20539;-69
2022/06/23 01:39:47;;;;;;;3.37;2.77;;;10.50;99.90;;;;;;8367003;28;20246;-72
2022/06/23 01:43:59;;;;;;;3.20;2.50;;;10.40;1.00;;;;;;8368549;28;20266;-69
2022/06/23 01:52:47;;;;;;;3.37;2.67;;;10.40;1.00;;;;;;8366109;28;20197;-70
2022/06/23 01:56:51;;;;;;;3.00;2.37;;;10.30;16.80;;;;;;8370586;28;20189;-69
2022/06/23 02:00:57;;;;;;;2.53;2.33;;;10.20;99.90;;;;;;8367738;28;20253;-70
2022/06/23 02:05:01;;;;;;;3.83;2.50;;;10.20;99.90;;;;;;8369210;28;20249;-71
2022/06/23 02:09:15;;;;;;;4.03;2.43;;;10.10;99.90;;;;;;8371363;28;20235;-69
2022/06/23 02:13:50;;;;;;;3.03;2.77;;;10.00;1.00;;;;;;8370130;28;20205;-69
2022/06/23 02:18:13;;;;;;;3.07;2.57;;;9.90;1.00;;;;;;8365698;28;20186;-69
2022/06/23 02:22:37;;;;;;;2.83;2.43;;;9.90;52.60;;;;;;8373360;28;20210;-69
2022/06/23 02:26:54;;;;;;;3.00;2.50;;;9.90;99.90;;;;;;8365471;28;20506;-71
2022/06/23 02:31:04;;;;;;;2.27;1.93;;;9.80;99.90;;;;;;8361032;28;20235;-69
2022/06/23 02:35:21;;;;;;;3.30;2.37;;;9.80;1.00;;;;;;8359165;28;20189;-70
2022/06/23 02:39:48;;;;;;;3.10;2.70;;;9.80;99.90;;;;;;8370983;28;20186;-69
2022/06/23 02:44:12;;;;;;;2.60;2.27;;;9.80;99.90;;;;;;8365599;28;20313;-70
2022/06/23 02:48:35;;;;;;;2.30;2.10;;;9.80;49.40;;;;;;8359157;28;20214;-68
2022/06/23 02:53:07;;;;;;;3.87;2.40;;;9.80;77.40;;;;;;8364951;28;20188;-68
2022/06/23 02:57:23;;;;;;;2.77;2.50;;;9.80;98.00;;;;;;8374665;28;20191;-66
2022/06/23 03:01:30;;;;;;;3.50;2.50;;;9.90;1.00;;;;;;8374031;28;20181;-67
2022/06/23 03:05:51;;;;;;;4.00;2.60;;;10.00;1.00;;;;;;8372657;28;20205;-66
2022/06/23 03:10:12;;;;;;;3.73;2.80;;;10.10;99.90;;;;;;8370310;28;20213;-66
2022/06/23 03:14:37;;;;;;;5.43;2.80;;;10.30;99.90;;;;;;8353063;28;20196;-66
2022/06/23 03:18:48;;;;;;;3.70;2.80;;;11.10;1.00;;;;;;8369343;28;20233;-67
2022/06/23 03:23:15;;;;;;;2.97;2.50;;;12.10;1.00;;;;;;8372766;28;20246;-66
2022/06/23 03:27:48;;;;;;;4.57;2.33;;;13.10;99.90;;;;;;8367807;28;20221;-66
2022/06/23 03:32:08;;;;;;;2.37;2.13;;;14.30;99.90;;;;;;8347498;28;20439;-66
2022/06/23 03:36:40;;;;;;;2.60;2.30;;;15.40;93.20;;;;;;8378048;28;20185;-67
2022/06/23 03:45:31;;;;;;;4.90;3.00;;;17.20;99.90;;;;;;8376503;28;20216;-67
2022/06/23 03:50:11;;;;;;;2.33;2.13;;;18.00;99.90;;;;;;8368464;28;20202;-67
2022/06/23 03:54:14;;;;;;;2.27;2.03;;;18.70;99.90;;;;;;8364140;28;20305;-67
2022/06/23 03:58:45;;;;;;;2.30;2.10;;;19.30;99.90;;;;;;8371637;28;20224;-67
2022/06/23 04:02:53;;;;;;;2.73;2.23;;;20.00;94.60;;;;;;8378952;28;20209;-68
2022/06/23 04:06:53;;;;;;;2.40;2.10;;;20.60;47.40;;;;;;8374349;28;20197;-68
2022/06/23 04:11:42;;;;;;;6.00;2.40;;;21.00;32.10;;;;;;8367902;28;20209;-66
2022/06/23 04:15:28;;;;;;;3.77;2.27;;;21.50;16.40;;;;;;8377564;28;20186;-67
2022/06/23 04:19:31;;;;;;;3.70;2.00;;;22.10;1.00;;;;;;8370315;28;20190;-66
2022/06/23 04:23:36;;;;;;;4.40;2.37;;;22.40;1.00;;;;;;8372798;28;20182;-66
2022/06/23 04:27:47;;;;;;;4.20;2.10;;;22.80;1.00;;;;;;8374857;28;20216;-67
2022/06/23 04:31:59;;;;;;;2.67;1.90;;;23.20;1.00;;;;;;8373682;28;20190;-67
2022/06/23 04:36:00;;;;;;;4.10;2.40;;;23.20;1.00;;;;;;8377104;28;20226;-66
2022/06/23 04:40:21;;;;;;;5.13;2.80;;;23.10;1.00;;;;;;8369371;28;20181;-67
2022/06/23 04:44:29;;;;;;;3.33;2.60;;;23.00;1.00;;;;;;8369049;28;20300;-67
2022/06/23 04:48:39;;;;;;;4.37;2.70;;;23.00;1.00;;;;;;8372291;28;20190;-66
2022/06/23 04:52:50;;;;;;;5.10;2.50;;;22.80;1.00;;;;;;8368338;28;20186;-68
2022/06/23 04:57:16;;;;;;;4.13;3.37;;;23.10;1.00;;;;;;8369285;28;20185;-67
2022/06/23 05:01:22;;;;;;;4.73;3.47;;;23.10;1.00;;;;;;8357989;28;20190;-67
2022/06/23 05:05:29;;;;;;;4.77;2.97;;;22.80;1.10;;;;;;8363986;28;20193;-70
2022/06/23 05:09:36;;;;;;;9.37;3.30;;;22.80;15.80;;;;;;8359910;28;20255;-66
2022/06/23 05:14:05;;;;;;;3.60;2.80;;;22.80;23.10;;;;;;8369914;28;20194;-67
2022/06/23 05:18:16;;;;;;;4.50;3.10;;;22.30;44.00;;;;;;8375227;28;20193;-67
2022/06/23 05:22:25;;;;;;;6.00;3.63;;;21.60;97.50;;;;;;8375310;28;20353;-68
2022/06/23 05:26:45;;;;;;;5.53;3.80;;;21.00;99.90;;;;;;8368643;28;20197;-66
2022/06/23 05:30:59;;;;;;;8.30;3.87;;;20.70;99.90;;;;;;8370213;28;20296;-67
2022/06/23 05:35:26;;;;;;;5.60;3.83;;;20.50;99.90;;;;;;8363395;28;20223;-66
2022/06/23 05:39:58;;;;;;;7.13;4.17;;;20.50;99.90;;;;;;8374695;28;20280;-66
2022/06/23 05:43:59;;;;;;;6.17;4.70;;;20.60;99.90;;;;;;8370338;28;20193;-62
2022/06/23 05:48:04;;;;;;;12.43;5.33;;;20.60;99.90;;;;;;8371722;28;20215;-68
2022/06/23 05:52:12;;;;;;;9.10;5.13;;;20.70;99.90;;;;;;8369447;28;20194;-66
2022/06/23 05:56:16;;;;;;;7.97;4.47;;;20.80;99.90;;;;;;8368098;28;20264;-66
2022/06/23 06:00:47;;;;;;;6.53;4.07;;;20.90;99.90;;;;;;8368522;28;20178;-62
2022/06/23 06:04:57;;;;;;;5.33;3.50;;;21.10;99.90;;;;;;8371183;28;20206;-61
2022/06/23 06:13:37;;;;;;;7.30;4.30;;;21.30;99.90;;;;;;8370409;28;20354;-61
2022/06/23 06:17:40;;;;;;;6.50;3.43;;;21.30;99.90;;;;;;8366998;28;20197;-65
2022/06/23 06:21:41;;;;;;;6.60;3.53;;;21.30;99.90;;;;;;8365911;28;20239;-64
2022/06/23 06:25:47;;;;;;;4.13;3.47;;;21.50;99.90;;;;;;8373228;28;20265;-65
2022/06/23 06:29:50;;;;;;;7.87;4.73;;;21.80;99.90;;;;;;8368574;28;20205;-63
2022/06/23 06:34:23;;;;;;;8.07;3.73;;;22.00;99.90;;;;;;8369412;28;20220;-66
2022/06/23 06:38:27;;;;;;;4.87;2.67;;;22.20;99.90;;;;;;8357343;28;20224;-67
2022/06/23 06:42:32;;;;;;;4.30;3.07;;;22.30;99.90;;;;;;8366662;28;20197;-63
2022/06/23 06:46:34;;;;;;;4.63;2.60;;;22.50;99.90;;;;;;8375506;28;20193;-61
2022/06/23 06:50:46;;;;;;;5.77;3.27;;;22.60;99.90;;;;;;8368092;28;20601;-62
2022/06/23 06:55:06;;;;;;;7.90;4.13;;;22.80;99.90;;;;;;8372670;28;20193;-62
2022/06/23 06:59:18;;;;;;;7.47;3.53;;;23.00;99.90;;;;;;8368296;28;20194;-65
2022/06/23 07:03:23;;;;;;;6.30;3.30;;;23.20;97.70;;;;;;8374164;28;20201;-68
2022/06/23 07:07:28;;;;;;;4.70;2.90;;;23.20;97.10;;;;;;8364394;28;20178;-66
2022/06/23 07:11:48;;;;;;;3.43;2.80;;;23.30;99.90;;;;;;8364471;28;20281;-64
2022/06/23 07:16:04;;;;;;;4.93;2.70;;;23.50;84.00;;;;;;8364446;28;20190;-66
2022/06/23 07:20:19;;;;;;;6.07;2.10;;;23.70;74.30;;;;;;8365360;28;20186;-66
2022/06/23 07:24:36;;;;;;;4.80;2.00;;;23.80;30.80;;;;;;8364016;28;20689;-65
2022/06/23 07:28:48;;;;;;;3.33;2.00;;;23.90;11.80;;;;;;8363923;28;20217;-67
2022/06/23 07:32:54;;;;;;;2.97;1.90;;;24.00;1.00;;;;;;8360266;28;20196;-67
2022/06/23 07:36:59;;;;;;;2.37;1.90;;;24.00;1.40;;;;;;8365241;28;20274;-67
2022/06/23 07:41:02;;;;;;;4.47;2.43;;;24.20;1.00;;;;;;8371182;28;20189;-63
2022/06/23 07:45:16;;;;;;;4.07;1.70;;;24.30;1.00;;;;;;8364344;28;20253;-63
2022/06/23 07:49:17;;;;;;;5.47;1.53;;;24.50;1.00;;;;;;8363606;28;20277;-71
2022/06/23 07:53:27;;;;;;;4.33;1.67;;;24.50;1.00;;;;;;8363135;28;20182;-67
2022/06/23 07:57:30;;;;;;;2.17;1.40;;;24.70;1.00;;;;;;8360585;28;20212;-67
2022/06/23 08:01:54;;;;;;;6.77;2.60;;;24.80;1.00;;;;;;8367578;28;20239;-62
2022/06/23 08:06:01;;;;;;;2.00;1.40;;;24.90;1.00;;;;;;8363407;28;20318;-66
2022/06/23 08:10:09;;;;;;;3.43;1.87;;;25.10;1.00;;;;;;8369247;28;20213;-64
2022/06/23 08:14:19;;;;;;;2.33;1.40;;;25.30;1.00;;;;;;8366779;28;20224;-68
2022/06/23 08:19:00;;;;;;;3.50;1.40;;;25.60;1.00;;;;;;8374555;28;20190;-64
2022/06/23 08:23:02;;;;;;;1.73;1.20;;;25.70;1.00;;;;;;8367952;28;20196;-64
2022/06/23 08:27:24;;;;;;;2.00;1.40;;;25.80;1.00;;;;;;8372126;28;20189;-69
2022/06/23 08:31:27;;;;;;;1.83;1.37;;;25.70;1.00;;;;;;8364591;28;20213;-62
2022/06/23 08:35:39;;;;;;;1.50;1.10;;;25.90;1.00;;;;;;8370287;28;20180;-61
2022/06/23 08:39:55;;;;;;;2.60;1.40;;;26.00;1.00;;;;;;8369640;28;20232;-62
2022/06/23 08:44:07;;;;;;;2.72;1.30;;;26.30;1.00;;;;;;8370239;28;20211;-69
2022/06/23 08:48:28;;;;;;;1.75;1.05;;;26.50;1.00;;;;;;8373459;28;20228;-61
2022/06/23 08:52:46;;;;;;;1.73;1.20;;;26.70;1.00;;;;;;8364641;28;20184;-62
2022/06/23 08:57:03;;;;;;;1.20;0.88;;;26.80;1.00;;;;;;8366701;28;20664;-63
2022/06/23 09:01:20;;;;;;;1.83;0.93;;;27.00;1.00;;;;;;8371042;28;20190;-66
2022/06/23 09:05:43;;;;;;;2.15;0.98;;;27.10;1.00;;;;;;8366139;28;20470;-64
2022/06/23 09:09:55;;;;;;;1.42;0.70;;;27.30;1.00;;;;;;8371516;28;20236;-58
2022/06/23 09:14:28;;;;;;;3.75;0.70;;;27.20;1.00;;;;;;8368299;28;20184;-59
2022/06/23 09:18:56;;;;;;;1.75;0.75;;;27.30;1.00;;;;;;8365549;28;20188;-65
2022/06/23 09:23:16;;;;;;;2.75;0.88;;;27.40;1.00;;;;;;8371655;28;20255;-62
2022/06/23 09:27:29;;;;;;;3.38;1.13;;;27.10;1.00;;;;;;8372422;28;20230;-63
2022/06/23 09:31:58;;;;;;;2.65;0.95;;;27.20;1.00;;;;;;8367051;28;20209;-60
2022/06/23 09:36:33;;;;;;;2.80;1.35;;;27.40;1.00;;;;;;8360264;28;20219;-61
2022/06/23 09:40:43;;;;;;;2.33;1.15;;;27.60;1.00;;;;;;8374157;28;20242;-61
2022/06/23 09:44:58;;;;;;;2.00;1.10;;;27.80;1.00;;;;;;8369267;28;20189;-65
2022/06/23 09:49:22;;;;;;;3.30;1.40;;;27.90;1.00;;;;;;8381393;28;20264;-65
2022/06/23 09:53:38;;;;;;;2.97;1.20;;;28.00;1.00;;;;;;8363958;28;20205;-62
2022/06/23 09:58:00;;;;;;;1.63;0.93;;;28.00;1.00;;;;;;8364286;28;20185;-63
2022/06/23 10:02:28;;;;;;;2.38;1.02;;;28.10;1.00;;;;;;8366347;28;20210;-62
2022/06/23 10:06:43;;;;;;;2.05;0.98;;;28.40;1.00;;;;;;8365240;28;20190;-63
2022/06/23 10:11:14;;;;;;;2.00;1.00;;;28.50;1.00;;;;;;8364341;28;20216;-64
2022/06/23 10:15:39;;;;;;;2.53;0.95;;;28.20;1.00;;;;;;8369463;28;20212;-61
2022/06/23 10:19:49;;;;;;;5.57;1.20;;;28.30;1.00;;;;;;8372449;28;20257;-64
2022/06/23 10:24:05;;;;;;;1.83;1.08;;;28.60;1.00;;;;;;8367511;28;20636;-64
2022/06/23 10:28:22;;;;;;;1.38;0.88;;;28.90;1.00;;;;;;8364719;28;20232;-62
2022/06/23 10:32:50;;;;;;;2.40;1.00;;;29.00;1.00;;;;;;8362818;28;20656;-66
2022/06/23 10:37:17;;;;;;;2.70;1.10;;;28.90;1.00;;;;;;8364800;28;20273;-62
2022/06/23 10:41:38;;;;;;;3.67;1.10;;;28.80;1.00;;;;;;8364842;28;20177;-61
2022/06/23 10:45:55;;;;;;;1.95;0.90;;;29.10;1.00;;;;;;8363291;28;20221;-68
2022/06/23 10:50:29;;;;;;;3.90;0.93;;;29.20;1.00;;;;;;8366582;28;20204;-60
2022/06/23 10:54:56;;;;;;;1.48;1.00;;;29.10;1.00;;;;;;8362759;28;20181;-63
2022/06/23 10:59:08;;;;;;;1.85;1.15;;;29.00;1.00;;;;;;8365223;28;20184;-62
2022/06/23 11:03:45;;;;;;;4.03;1.50;;;29.10;1.00;;;;;;8357615;28;20284;-63
2022/06/23 11:08:11;;;;;;;2.92;1.00;;;29.30;1.00;;;;;;8368897;28;20189;-62
2022/06/23 11:12:51;;;;;;;2.65;1.13;;;29.60;1.00;;;;;;8364935;28;20197;-61
2022/06/23 11:17:17;;;;;;;2.72;0.95;;;29.90;1.00;;;;;;8358187;28;20196;-63
2022/06/23 11:21:33;;;;;;;2.55;0.90;;;29.90;1.00;;;;;;8359419;28;20185;-61
2022/06/23 11:26:09;;;;;;;1.63;1.00;;;29.80;1.00;;;;;;8359730;28;20191;-64
2022/06/23 11:30:29;;;;;;;1.27;1.13;;;29.90;1.00;;;;;;8359303;28;20224;-61
2022/06/23 11:35:01;;;;;;;2.92;1.10;;;29.90;1.00;;;;;;8361940;28;20178;-65
2022/06/23 11:39:43;;;;;;;5.47;1.30;;;29.90;1.00;;;;;;8363798;28;20224;-60
2022/06/23 11:44:07;;;;;;;2.17;1.27;;;30.20;1.00;;;;;;8345991;28;20205;-61
2022/06/23 11:48:42;;;;;;;4.07;1.05;;;30.00;1.00;;;;;;8357548;28;20194;-60
2022/06/23 11:53:13;;;;;;;2.50;0.95;;;29.90;1.00;;;;;;8371374;28;20185;-65
2022/06/23 11:58:01;;;;;;;3.60;1.30;;;30.10;1.00;;;;;;8367730;28;20178;-61
2022/06/23 12:02:02;;;;;;;2.63;1.10;;;30.30;1.00;;;;;;8363259;28;20181;-60
2022/06/23 12:06:24;;;;;;;2.05;1.25;;;30.50;1.00;;;;;;8368925;28;20193;-60
2022/06/23 12:10:29;;;;;;;1.52;0.98;;;30.60;1.00;;;;;;8369828;28;20209;-60
2022/06/23 12:14:31;;;;;;;1.30;0.90;;;30.60;1.00;;;;;;8390103;28;20181;-63
2022/06/23 12:18:41;;;;;;;1.73;1.00;;;30.50;1.00;;;;;;8370205;28;20185;-61
2022/06/23 12:23:01;;;;;;;2.75;1.10;;;30.60;1.00;;;;;;8364260;28;20213;-63
2022/06/23 12:27:25;;;;;;;1.42;0.80;;;30.60;1.00;;;;;;8371010;28;20216;-68
2022/06/23 12:31:44;;;;;;;1.35;0.90;;;30.50;1.00;;;;;;8367288;28;20206;-61
2022/06/23 12:36:08;;;;;;;1.17;0.93;;;30.50;1.00;;;;;;8359914;28;20490;-63
2022/06/23 12:40:23;;;;;;;3.28;1.17;;;30.50;1.00;;;;;;8359013;28;20181;-61
2022/06/23 12:44:42;;;;;;;1.15;0.85;;;30.50;1.00;;;;;;8368743;28;20177;-62
2022/06/23 12:48:55;;;;;;;3.33;1.20;;;30.50;1.00;;;;;;8363994;28;20284;-61
2022/06/23 12:53:14;;;;;;;1.98;0.70;;;30.60;1.00;;;;;;8370388;28;20256;-61
2022/06/23 12:57:40;;;;;;;1.23;1.00;;;30.70;1.00;;;;;;8366902;28;20194;-62
2022/06/23 13:01:56;;;;;;;1.52;0.90;;;30.60;1.00;;;;;;8367763;28;20190;-62
2022/06/23 13:06:00;;;;;;;1.80;1.10;;;30.70;1.00;;;;;;8366941;28;20236;-63
2022/06/23 13:10:22;;;;;;;1.80;0.70;;;30.80;1.00;;;;;;8369681;28;20209;-62
2022/06/23 13:14:55;;;;;;;1.67;0.70;;;30.70;1.00;;;;;;8365013;28;20173;-63
2022/06/23 13:19:06;;;;;;;1.80;0.73;;;30.90;1.00;;;;;;8370968;28;20230;-60
2022/06/23 13:23:20;;;;;;;1.33;1.13;;;31.00;1.00;;;;;;8373794;28;20243;-63
2022/06/23 13:27:25;;;;;;;2.53;1.10;;;31.10;1.00;;;;;;8367191;28;20201;-62
2022/06/23 13:31:39;;;;;;;2.65;0.88;;;31.20;1.00;;;;;;8367041;28;20213;-59
2022/06/23 13:35:46;;;;;;;1.15;0.68;;;31.10;1.00;;;;;;8370476;28;20262;-61
2022/06/23 13:39:59;;;;;;;1.85;0.90;;;31.10;1.00;;;;;;8369992;28;20211;-59
2022/06/23 13:44:33;;;;;;;2.47;0.90;;;31.10;1.00;;;;;;8371296;28;20203;-60
2022/06/23 13:48:56;;;;;;;1.13;0.98;;;31.10;1.00;;;;;;8365079;28;20304;-62
2022/06/23 13:53:23;;;;;;;1.38;0.80;;;31.10;1.00;;;;;;8364947;28;20173;-62
2022/06/23 13:57:27;;;;;;;2.25;0.80;;;31.20;1.00;;;;;;8370322;28;20176;-58
2022/06/23 14:01:57;;;;;;;2.17;0.85;;;31.30;1.00;;;;;;8367725;28;20178;-58
2022/06/23 14:06:06;;;;;;;2.15;0.80;;;31.10;1.00;;;;;;8363021;28;20428;-60
2022/06/23 14:10:13;;;;;;;8.40;1.52;;;31.00;1.00;;;;;;8366198;28;20541;-57
2022/06/23 14:14:55;;;;;;;2.13;1.33;;;31.00;1.00;;;;;;8369829;28;20169;-64
2022/06/23 14:19:06;;;;;;;1.55;1.02;;;31.00;1.00;;;;;;8374756;28;20180;-63
2022/06/23 14:23:32;;;;;;;1.85;0.95;;;31.00;1.00;;;;;;8367322;28;20186;-60
2022/06/23 14:27:38;;;;;;;1.90;1.00;;;31.00;1.00;;;;;;8367762;28;20209;-62
2022/06/23 14:32:21;;;;;;;3.92;1.08;;;31.00;1.00;;;;;;8357058;28;20212;-65
2022/06/23 14:36:38;;;;;;;6.25;1.40;;;31.00;1.00;;;;;;8370071;28;20185;-62
2022/06/23 14:41:04;;;;;;;2.15;0.70;;;30.90;1.00;;;;;;8364223;28;20231;-64
2022/06/23 14:45:38;;;;;;;2.45;0.90;;;30.90;1.00;;;;;;8366264;28;20292;-59
2022/06/23 14:49:48;;;;;;;3.42;0.90;;;30.90;1.00;;;;;;8372269;28;20263;-62
2022/06/23 14:53:58;;;;;;;2.20;0.70;;;31.00;1.00;;;;;;8371134;28;20182;-62
2022/06/23 14:58:07;;;;;;;1.67;0.80;;;31.00;1.00;;;;;;8369140;28;20180;-62
2022/06/23 15:02:30;;;;;;;2.83;0.93;;;31.00;1.00;;;;;;8373889;28;20248;-62
2022/06/23 15:06:45;;;;;;;7.75;2.53;;;31.00;1.00;;;;;;8365909;28;20196;-61
2022/06/23 15:10:51;;;;;;;2.33;1.00;;;31.10;1.00;;;;;;8360445;28;20236;-63
2022/06/23 15:15:09;;;;;;;6.03;1.10;;;31.10;1.00;;;;;;8366066;28;20205;-60
2022/06/23 15:19:48;;;;;;;1.98;0.82;;;31.10;1.00;;;;;;8374739;28;20189;-60
2022/06/23 15:23:49;;;;;;;2.92;0.88;;;31.00;1.00;;;;;;8356237;28;20307;-62
2022/06/23 15:28:22;;;;;;;1.17;0.80;;;30.90;1.00;;;;;;8371439;28;20306;-61
2022/06/23 15:32:32;;;;;;;1.50;0.98;;;30.90;1.00;;;;;;8367638;28;20190;-61
2022/06/23 15:37:04;;;;;;;2.08;0.80;;;30.70;1.00;;;;;;8375091;28;20182;-60
2022/06/23 15:41:39;;;;;;;3.40;1.70;;;30.70;1.00;;;;;;8373673;28;20204;-61
2022/06/23 15:46:03;;;;;;;1.85;1.02;;;30.60;1.00;;;;;;8368906;28;20211;-60
2022/06/23 15:50:32;;;;;;;1.67;0.73;;;30.50;1.00;;;;;;8385071;28;20197;-60
2022/06/23 15:54:59;;;;;;;2.67;1.10;;;30.50;1.00;;;;;;8367617;28;20178;-62
2022/06/23 15:59:07;;;;;;;1.65;0.90;;;30.50;1.00;;;;;;8370245;28;20193;-63
2022/06/23 16:03:18;;;;;;;1.90;0.82;;;30.50;1.00;;;;;;8374096;28;20193;-59
2022/06/23 16:07:23;;;;;;;2.97;1.30;;;30.50;1.00;;;;;;8372350;28;20523;-60
2022/06/23 16:11:47;;;;;;;3.83;1.20;;;30.40;1.00;;;;;;8369304;28;20198;-63
2022/06/23 16:15:54;;;;;;;4.15;1.02;;;30.20;1.00;;;;;;8366755;28;20272;-60
2022/06/23 16:20:03;;;;;;;4.43;1.20;;;30.00;1.00;;;;;;8368118;28;20239;-61
2022/06/23 16:24:24;;;;;;;1.67;0.70;;;29.90;1.00;;;;;;8369975;28;20181;-60
2022/06/23 16:28:40;;;;;;;2.47;1.30;;;29.90;1.00;;;;;;8375460;28;20217;-59
2022/06/23 16:32:50;;;;;;;1.08;0.90;;;29.80;1.00;;;;;;8373820;28;20225;-60
2022/06/23 16:37:03;;;;;;;3.20;1.30;;;29.70;1.00;;;;;;8371499;28;20228;-61
2022/06/23 16:41:37;;;;;;;2.17;1.02;;;29.60;1.00;;;;;;8365942;28;20271;-60
2022/06/23 16:45:51;;;;;;;2.75;1.00;;;29.60;1.00;;;;;;8367146;28;20185;-60
2022/06/23 16:50:19;;;;;;;3.33;1.10;;;29.50;1.00;;;;;;8367999;28;20216;-62
2022/06/23 16:54:42;;;;;;;2.30;0.80;;;29.40;1.00;;;;;;8367993;28;20181;-62
2022/06/23 16:59:20;;;;;;;4.00;1.30;;;29.30;1.00;;;;;;8367364;28;20211;-60
2022/06/23 17:03:40;;;;;;;2.47;0.85;;;29.20;1.00;;;;;;8368949;28;20197;-62
2022/06/23 17:08:05;;;;;;;3.20;1.02;;;29.10;1.00;;;;;;8377285;28;20192;-61
2022/06/23 17:12:14;;;;;;;4.40;0.90;;;29.10;1.00;;;;;;8367748;28;20257;-64
2022/06/23 17:16:15;;;;;;;2.80;1.05;;;29.20;1.00;;;;;;8370839;28;20189;-61
2022/06/23 17:20:27;;;;;;;2.45;0.80;;;29.70;1.00;;;;;;8372679;28;20288;-61
2022/06/23 17:24:39;;;;;;;2.88;1.15;;;30.60;1.00;;;;;;8365899;28;20217;-60
2022/06/23 17:29:02;;;;;;;1.92;0.90;;;31.20;1.00;;;;;;8369656;28;20217;-60
2022/06/23 17:33:18;;;;;;;3.13;1.20;;;32.00;1.00;;;;;;8366436;28;20189;-61
2022/06/23 17:37:48;;;;;;;5.90;1.15;;;32.50;1.00;;;;;;8360499;28;20186;-63
2022/06/23 17:46:58;;;;;;;2.75;1.00;;;33.40;1.00;;;;;;8366989;28;20275;-61
2022/06/23 17:51:13;;;;;;;2.22;0.85;;;33.20;1.00;;;;;;8370681;28;20257;-62
2022/06/23 17:55:23;;;;;;;1.83;0.98;;;33.70;1.00;;;;;;8371858;28;20174;-62
2022/06/23 17:59:38;;;;;;;1.92;0.70;;;33.70;1.00;;;;;;8371082;28;20243;-60
2022/06/23 18:03:52;;;;;;;2.20;1.00;;;33.60;1.00;;;;;;8365022;28;20335;-60
2022/06/23 18:08:05;;;;;;;4.97;1.40;;;33.80;1.00;;;;;;8366605;28;20190;-61
2022/06/23 18:12:11;;;;;;;1.00;0.60;;;33.80;1.00;;;;;;8367340;28;20237;-63
2022/06/23 18:16:33;;;;;;;3.45;1.02;;;33.80;1.00;;;;;;8366335;28;20182;-64
2022/06/23 18:20:48;;;;;;;3.75;1.05;;;33.80;1.00;;;;;;8369607;28;20181;-63
2022/06/23 18:25:04;;;;;;;2.30;1.77;;;33.70;1.00;;;;;;8370482;28;20186;-61
2022/06/23 18:29:38;;;;;;;3.58;1.08;;;33.50;1.00;;;;;;8364689;28;20232;-62
2022/06/23 18:34:01;;;;;;;2.45;0.93;;;33.00;1.00;;;;;;8356329;28;20693;-62
2022/06/23 18:38:05;;;;;;;2.60;0.80;;;32.60;1.00;;;;;;8367277;28;20185;-61
2022/06/23 18:42:06;;;;;;;4.90;1.05;;;32.30;1.00;;;;;;8367857;28;20184;-60
2022/06/23 18:46:23;;;;;;;3.53;0.93;;;31.70;1.00;;;;;;8366056;28;20174;-62
2022/06/23 18:50:28;;;;;;;1.63;1.10;;;31.10;1.00;;;;;;8360072;28;20206;-62
2022/06/23 18:54:37;;;;;;;4.18;1.00;;;30.60;1.00;;;;;;8361947;28;20182;-62
2022/06/23 18:59:18;;;;;;;1.83;0.90;;;29.90;1.00;;;;;;8361894;28;20293;-62
2022/06/23 19:03:23;;;;;;;1.88;1.02;;;29.20;1.00;;;;;;8365654;28;20217;-61
2022/06/23 19:07:45;;;;;;;2.92;1.20;;;28.10;1.00;;;;;;8372600;28;20177;-61
2022/06/23 19:12:21;;;;;;;2.03;1.17;;;27.10;1.00;;;;;;8369543;28;20209;-60
2022/06/23 19:16:28;;;;;;;3.00;0.80;;;26.30;1.00;;;;;;8366655;28;20222;-63
2022/06/23 19:20:39;;;;;;;4.53;1.13;;;25.60;1.00;;;;;;8364770;28;20188;-63
2022/06/23 19:24:49;;;;;;;3.53;1.30;;;25.10;1.00;;;;;;8376738;28;20178;-62
2022/06/23 19:29:11;;;;;;;6.17;1.87;;;24.70;1.00;;;;;;8363478;28;20205;-63
2022/06/23 19:33:42;;;;;;;2.00;1.10;;;24.30;1.00;;;;;;8370256;28;20308;-62
2022/06/23 19:38:21;;;;;;;4.90;1.43;;;24.00;1.00;;;;;;8360034;28;20186;-65
2022/06/23 19:42:33;;;;;;;1.80;1.30;;;23.60;1.00;;;;;;8382055;28;20175;-63
2022/06/23 19:46:45;;;;;;;3.23;1.40;;;23.40;1.00;;;;;;8362502;28;20167;-67
2022/06/23 19:50:52;;;;;;;2.70;1.40;;;23.20;1.00;;;;;;8368311;28;20219;-62
2022/06/23 19:55:01;;;;;;;2.37;1.57;;;22.90;1.00;;;;;;8370523;28;20177;-63
2022/06/23 19:59:05;;;;;;;3.77;1.13;;;22.70;1.00;;;;;;8366106;28;20201;-65
2022/06/23 20:03:32;;;;;;;4.47;1.30;;;22.50;1.00;;;;;;8363808;28;20280;-65
2022/06/23 20:07:42;;;;;;;3.93;1.67;;;22.20;1.00;;;;;;8365625;28;20192;-65
2022/06/23 20:11:55;;;;;;;1.20;1.10;;;22.00;1.00;;;;;;8366097;28;20213;-65
2022/06/23 20:16:07;;;;;;;3.03;1.37;;;21.70;1.00;;;;;;8371198;28;20181;-65
2022/06/23 20:20:12;;;;;;;4.57;1.40;;;21.50;1.00;;;;;;8377702;28;20178;-64
2022/06/23 20:24:25;;;;;;;3.90;1.90;;;21.30;1.00;;;;;;8373709;28;20178;-66
2022/06/23 20:28:32;;;;;;;2.73;1.60;;;21.10;1.00;;;;;;8371034;28;20304;-64
2022/06/23 20:33:11;;;;;;;3.60;1.40;;;21.00;1.00;;;;;;8380154;28;20186;-64
2022/06/23 20:37:37;;;;;;;5.63;1.40;;;20.80;1.00;;;;;;8376408;28;20454;-64
2022/06/23 20:41:59;;;;;;;6.40;1.40;;;20.70;1.00;;;;;;8361116;28;20258;-64
2022/06/23 20:46:33;;;;;;;2.47;1.30;;;20.50;1.00;;;;;;8371033;28;20291;-66
2022/06/23 20:50:40;;;;;;;4.63;1.57;;;20.40;1.00;;;;;;8365868;28;20247;-63
2022/06/23 20:54:53;;;;;;;2.93;1.80;;;20.30;1.00;;;;;;8376064;28;20288;-65
2022/06/23 20:59:17;;;;;;;1.47;1.33;;;20.30;1.00;;;;;;8372894;28;20186;-64
2022/06/23 21:03:25;;;;;;;4.87;1.50;;;20.20;3.20;;;;;;8373075;28;20284;-65
2022/06/23 21:07:35;;;;;;;3.47;1.87;;;20.00;7.80;;;;;;8370043;28;20186;-64
2022/06/23 21:11:38;;;;;;;2.90;1.80;;;20.00;16.20;;;;;;8371616;28;20225;-64
2022/06/23 21:16:22;;;;;;;3.53;2.00;;;19.90;24.60;;;;;;8374567;28;20198;-64
2022/06/23 21:20:26;;;;;;;5.20;1.80;;;19.80;32.30;;;;;;8349706;28;20205;-63
2022/06/23 21:24:47;;;;;;;3.10;2.00;;;19.70;46.70;;;;;;8367271;28;20212;-63
2022/06/23 21:29:02;;;;;;;3.60;1.90;;;19.60;59.60;;;;;;8365396;28;20205;-65
2022/06/23 21:33:34;;;;;;;5.47;2.20;;;19.50;72.90;;;;;;8367783;28;20246;-63
2022/06/23 21:37:42;;;;;;;4.03;1.80;;;19.30;90.50;;;;;;8371257;28;20182;-65
2022/06/23 21:41:49;;;;;;;2.93;1.90;;;19.20;94.20;;;;;;8368257;28;20281;-63
2022/06/23 21:45:59;;;;;;;2.70;1.90;;;19.10;99.90;;;;;;8371845;28;20182;-63
2022/06/23 21:50:31;;;;;;;3.10;2.07;;;19.00;99.90;;;;;;8365452;28;20549;-64
2022/06/23 21:54:40;;;;;;;2.13;1.93;;;18.80;99.90;;;;;;8366879;28;20188;-64
2022/06/23 21:58:58;;;;;;;2.20;1.73;;;18.70;99.90;;;;;;8365974;28;20250;-63
2022/06/23 22:03:14;;;;;;;3.33;1.97;;;18.60;99.90;;;;;;8367816;28;20189;-64
2022/06/23 22:07:39;;;;;;;3.00;1.87;;;18.50;99.90;;;;;;8369604;28;20181;-65
2022/06/23 22:11:44;;;;;;;1.60;1.50;;;18.40;99.90;;;;;;8359408;28;20232;-64
2022/06/23 22:15:48;;;;;;;2.70;1.80;;;18.40;99.90;;;;;;8362464;28;20192;-64
2022/06/23 22:19:59;;;;;;;2.70;1.87;;;18.20;99.90;;;;;;8364167;28;20260;-65
2022/06/23 22:29:16;;;;;;;2.43;1.63;;;17.90;99.90;;;;;;8361988;28;20240;-64
2022/06/23 22:33:19;;;;;;;2.33;1.67;;;17.80;99.90;;;;;;8365992;28;20421;-64
2022/06/23 22:37:21;;;;;;;3.87;2.03;;;17.70;99.90;;;;;;8367290;28;20209;-64
2022/06/23 22:41:23;;;;;;;3.23;2.00;;;17.60;99.90;;;;;;8359789;28;20189;-64
2022/06/23 22:45:39;;;;;;;2.90;2.37;;;17.50;99.90;;;;;;8361841;28;20275;-64
2022/06/23 22:49:39;;;;;;;4.20;2.00;;;17.40;99.90;;;;;;8364960;28;20198;-64
2022/06/23 22:53:40;;;;;;;3.63;2.10;;;17.30;99.90;;;;;;8371908;28;20211;-64